sensor_id;sensor_type;location;lat;lon;timestamp;P1;durP1;ratioP1;P2;durP2;ratioP2
21697;SDS011;11010;49.548;11.926;2024-01-11T00:01:11;28.30;;;9.60;;
21697;SDS011;11010;49.548;11.926;2024-01-11T00:03:39;24.53;;;9.37;;
21697;SDS011;11010;49.548;11.926;2024-01-11T00:06:06;24.03;;;9.33;;
21697;SDS011;11010;49.548;11.926;2024-01-11T00:08:34;25.93;;;9.07;;
21697;SDS011;11010;49.548;11.926;2024-01-11T00:11:01;29.37;;;10.33;;
21697;SDS011;11010;49.548;11.926;2024-01-11T00:13:30;27.70;;;9.30;;
21697;SDS011;11010;49.548;11.926;2024-01-11T00:15:57;27.67;;;9.53;;
21697;SDS011;11010;49.548;11.926;2024-01-11T00:18:25;26.40;;;9.23;;
21697;SDS011;11010;49.548;11.926;2024-01-11T00:20:52;29.37;;;10.13;;
21697;SDS011;11010;49.548;11.926;2024-01-11T00:23:20;27.13;;;9.53;;
21697;SDS011;11010;49.548;11.926;2024-01-11T00:25:48;30.00;;;10.60;;
21697;SDS011;11010;49.548;11.926;2024-01-11T00:28:15;27.37;;;9.67;;
21697;SDS011;11010;49.548;11.926;2024-01-11T00:30:43;28.03;;;9.37;;
21697;SDS011;11010;49.548;11.926;2024-01-11T00:33:10;25.40;;;8.90;;
21697;SDS011;11010;49.548;11.926;2024-01-11T00:35:38;27.27;;;9.93;;
21697;SDS011;11010;49.548;11.926;2024-01-11T00:38:05;29.07;;;9.87;;
21697;SDS011;11010;49.548;11.926;2024-01-11T00:40:33;27.60;;;9.83;;
21697;SDS011;11010;49.548;11.926;2024-01-11T00:43:00;27.50;;;9.50;;
21697;SDS011;11010;49.548;11.926;2024-01-11T00:45:28;26.80;;;10.10;;
21697;SDS011;11010;49.548;11.926;2024-01-11T00:47:55;26.60;;;9.90;;
21697;SDS011;11010;49.548;11.926;2024-01-11T00:50:23;27.83;;;9.57;;
21697;SDS011;11010;49.548;11.926;2024-01-11T00:52:50;25.30;;;8.93;;
21697;SDS011;11010;49.548;11.926;2024-01-11T00:55:18;29.33;;;9.70;;
21697;SDS011;11010;49.548;11.926;2024-01-11T00:57:45;26.07;;;9.07;;
21697;SDS011;11010;49.548;11.926;2024-01-11T01:00:13;25.80;;;9.10;;
21697;SDS011;11010;49.548;11.926;2024-01-11T01:02:40;22.43;;;8.97;;
21697;SDS011;11010;49.548;11.926;2024-01-11T01:05:08;22.57;;;8.77;;
21697;SDS011;11010;49.548;11.926;2024-01-11T01:07:35;30.10;;;9.80;;
21697;SDS011;11010;49.548;11.926;2024-01-11T01:10:03;24.17;;;8.47;;
21697;SDS011;11010;49.548;11.926;2024-01-11T01:12:30;23.53;;;8.90;;
21697;SDS011;11010;49.548;11.926;2024-01-11T01:14:58;28.50;;;9.80;;
21697;SDS011;11010;49.548;11.926;2024-01-11T01:17:25;27.93;;;9.83;;
21697;SDS011;11010;49.548;11.926;2024-01-11T01:19:53;29.00;;;9.40;;
21697;SDS011;11010;49.548;11.926;2024-01-11T01:22:20;29.03;;;9.40;;
21697;SDS011;11010;49.548;11.926;2024-01-11T01:24:47;26.37;;;8.67;;
21697;SDS011;11010;49.548;11.926;2024-01-11T01:27:16;23.70;;;8.27;;
21697;SDS011;11010;49.548;11.926;2024-01-11T01:29:43;26.43;;;9.57;;
21697;SDS011;11010;49.548;11.926;2024-01-11T01:32:11;28.50;;;10.30;;
21697;SDS011;11010;49.548;11.926;2024-01-11T01:34:38;24.43;;;8.37;;
21697;SDS011;11010;49.548;11.926;2024-01-11T01:37:06;25.87;;;9.07;;
21697;SDS011;11010;49.548;11.926;2024-01-11T01:39:36;28.87;;;9.57;;
21697;SDS011;11010;49.548;11.926;2024-01-11T01:42:04;23.03;;;8.67;;
21697;SDS011;11010;49.548;11.926;2024-01-11T01:44:33;26.17;;;9.40;;
21697;SDS011;11010;49.548;11.926;2024-01-11T01:47:01;26.63;;;9.17;;
21697;SDS011;11010;49.548;11.926;2024-01-11T01:49:30;23.30;;;8.63;;
21697;SDS011;11010;49.548;11.926;2024-01-11T01:51:57;25.63;;;9.00;;
21697;SDS011;11010;49.548;11.926;2024-01-11T01:54:25;26.67;;;9.60;;
21697;SDS011;11010;49.548;11.926;2024-01-11T01:56:53;25.63;;;8.83;;
21697;SDS011;11010;49.548;11.926;2024-01-11T01:59:21;27.37;;;9.13;;
21697;SDS011;11010;49.548;11.926;2024-01-11T02:01:50;28.20;;;8.90;;
21697;SDS011;11010;49.548;11.926;2024-01-11T02:04:17;25.47;;;8.73;;
21697;SDS011;11010;49.548;11.926;2024-01-11T02:06:45;23.37;;;8.93;;
21697;SDS011;11010;49.548;11.926;2024-01-11T02:09:14;25.43;;;8.30;;
21697;SDS011;11010;49.548;11.926;2024-01-11T02:11:42;27.37;;;8.90;;
21697;SDS011;11010;49.548;11.926;2024-01-11T02:14:10;25.43;;;9.20;;
21697;SDS011;11010;49.548;11.926;2024-01-11T02:16:37;26.17;;;9.63;;
21697;SDS011;11010;49.548;11.926;2024-01-11T02:19:05;24.80;;;9.03;;
21697;SDS011;11010;49.548;11.926;2024-01-11T02:21:34;23.93;;;9.30;;
21697;SDS011;11010;49.548;11.926;2024-01-11T02:24:05;26.73;;;8.70;;
21697;SDS011;11010;49.548;11.926;2024-01-11T02:26:33;24.13;;;8.83;;
21697;SDS011;11010;49.548;11.926;2024-01-11T02:29:01;23.47;;;8.73;;
21697;SDS011;11010;49.548;11.926;2024-01-11T02:31:29;27.07;;;8.80;;
21697;SDS011;11010;49.548;11.926;2024-01-11T02:33:57;24.57;;;9.07;;
21697;SDS011;11010;49.548;11.926;2024-01-11T02:36:25;25.67;;;9.13;;
21697;SDS011;11010;49.548;11.926;2024-01-11T02:38:53;26.27;;;8.93;;
21697;SDS011;11010;49.548;11.926;2024-01-11T02:41:20;23.00;;;8.97;;
21697;SDS011;11010;49.548;11.926;2024-01-11T02:46:50;22.60;;;8.87;;
21697;SDS011;11010;49.548;11.926;2024-01-11T02:49:17;25.47;;;9.27;;
21697;SDS011;11010;49.548;11.926;2024-01-11T02:51:45;27.30;;;8.83;;
21697;SDS011;11010;49.548;11.926;2024-01-11T02:54:12;26.17;;;9.40;;
21697;SDS011;11010;49.548;11.926;2024-01-11T02:56:40;25.20;;;9.07;;
21697;SDS011;11010;49.548;11.926;2024-01-11T02:59:08;23.60;;;8.17;;
21697;SDS011;11010;49.548;11.926;2024-01-11T03:01:36;22.57;;;8.80;;
21697;SDS011;11010;49.548;11.926;2024-01-11T03:04:05;28.77;;;9.43;;
21697;SDS011;11010;49.548;11.926;2024-01-11T03:06:33;25.90;;;9.03;;
21697;SDS011;11010;49.548;11.926;2024-01-11T03:09:00;25.43;;;8.63;;
21697;SDS011;11010;49.548;11.926;2024-01-11T03:11:27;23.53;;;8.43;;
21697;SDS011;11010;49.548;11.926;2024-01-11T03:13:55;20.97;;;8.33;;
21697;SDS011;11010;49.548;11.926;2024-01-11T03:16:22;24.13;;;8.67;;
21697;SDS011;11010;49.548;11.926;2024-01-11T03:18:50;23.50;;;9.00;;
21697;SDS011;11010;49.548;11.926;2024-01-11T03:21:17;22.67;;;8.60;;
21697;SDS011;11010;49.548;11.926;2024-01-11T03:23:45;24.67;;;8.60;;
21697;SDS011;11010;49.548;11.926;2024-01-11T03:26:15;25.90;;;9.17;;
21697;SDS011;11010;49.548;11.926;2024-01-11T03:28:43;22.80;;;8.80;;
21697;SDS011;11010;49.548;11.926;2024-01-11T03:31:11;21.60;;;8.00;;
21697;SDS011;11010;49.548;11.926;2024-01-11T03:33:38;22.97;;;8.57;;
21697;SDS011;11010;49.548;11.926;2024-01-11T03:36:09;24.27;;;8.53;;
21697;SDS011;11010;49.548;11.926;2024-01-11T03:38:37;22.87;;;8.47;;
21697;SDS011;11010;49.548;11.926;2024-01-11T03:41:07;24.90;;;8.30;;
21697;SDS011;11010;49.548;11.926;2024-01-11T03:43:38;27.10;;;9.73;;
21697;SDS011;11010;49.548;11.926;2024-01-11T03:46:05;26.97;;;9.07;;
21697;SDS011;11010;49.548;11.926;2024-01-11T03:48:33;22.10;;;8.60;;
21697;SDS011;11010;49.548;11.926;2024-01-11T03:51:04;22.77;;;8.47;;
21697;SDS011;11010;49.548;11.926;2024-01-11T03:53:34;22.73;;;8.17;;
21697;SDS011;11010;49.548;11.926;2024-01-11T03:56:02;25.00;;;8.37;;
21697;SDS011;11010;49.548;11.926;2024-01-11T03:58:30;26.63;;;8.50;;
21697;SDS011;11010;49.548;11.926;2024-01-11T04:00:57;22.33;;;7.93;;
21697;SDS011;11010;49.548;11.926;2024-01-11T04:03:25;20.13;;;7.67;;
21697;SDS011;11010;49.548;11.926;2024-01-11T04:05:52;23.33;;;7.63;;
21697;SDS011;11010;49.548;11.926;2024-01-11T04:08:20;22.53;;;8.23;;
21697;SDS011;11010;49.548;11.926;2024-01-11T04:10:47;23.33;;;8.93;;
21697;SDS011;11010;49.548;11.926;2024-01-11T04:13:15;24.20;;;8.47;;
21697;SDS011;11010;49.548;11.926;2024-01-11T04:15:42;22.00;;;8.07;;
21697;SDS011;11010;49.548;11.926;2024-01-11T04:18:10;22.33;;;8.47;;
21697;SDS011;11010;49.548;11.926;2024-01-11T04:20:37;25.97;;;8.67;;
21697;SDS011;11010;49.548;11.926;2024-01-11T04:23:05;25.60;;;8.20;;
21697;SDS011;11010;49.548;11.926;2024-01-11T04:25:32;25.60;;;8.93;;
21697;SDS011;11010;49.548;11.926;2024-01-11T04:27:59;26.30;;;8.67;;
21697;SDS011;11010;49.548;11.926;2024-01-11T04:30:27;21.13;;;7.73;;
21697;SDS011;11010;49.548;11.926;2024-01-11T04:32:54;22.93;;;8.90;;
21697;SDS011;11010;49.548;11.926;2024-01-11T04:35:22;25.13;;;8.73;;
21697;SDS011;11010;49.548;11.926;2024-01-11T04:37:49;25.53;;;9.07;;
21697;SDS011;11010;49.548;11.926;2024-01-11T04:40:17;25.30;;;8.30;;
21697;SDS011;11010;49.548;11.926;2024-01-11T04:42:44;24.73;;;8.30;;
21697;SDS011;11010;49.548;11.926;2024-01-11T04:52:18;26.73;;;8.70;;
21697;SDS011;11010;49.548;11.926;2024-01-11T04:54:46;23.30;;;8.77;;
21697;SDS011;11010;49.548;11.926;2024-01-11T04:57:14;25.17;;;9.07;;
21697;SDS011;11010;49.548;11.926;2024-01-11T04:59:42;25.40;;;8.70;;
21697;SDS011;11010;49.548;11.926;2024-01-11T05:02:10;25.90;;;8.67;;
21697;SDS011;11010;49.548;11.926;2024-01-11T05:04:38;21.87;;;8.27;;
21697;SDS011;11010;49.548;11.926;2024-01-11T05:07:05;24.03;;;8.43;;
21697;SDS011;11010;49.548;11.926;2024-01-11T05:09:33;23.73;;;8.07;;
21697;SDS011;11010;49.548;11.926;2024-01-11T05:12:01;21.93;;;7.90;;
21697;SDS011;11010;49.548;11.926;2024-01-11T05:14:29;25.20;;;8.60;;
21697;SDS011;11010;49.548;11.926;2024-01-11T05:16:57;25.77;;;9.03;;
21697;SDS011;11010;49.548;11.926;2024-01-11T05:19:25;26.73;;;9.10;;
21697;SDS011;11010;49.548;11.926;2024-01-11T05:21:53;25.03;;;8.67;;
21697;SDS011;11010;49.548;11.926;2024-01-11T05:24:20;26.13;;;9.43;;
21697;SDS011;11010;49.548;11.926;2024-01-11T05:26:48;24.17;;;8.70;;
21697;SDS011;11010;49.548;11.926;2024-01-11T05:29:16;25.87;;;8.47;;
21697;SDS011;11010;49.548;11.926;2024-01-11T05:31:44;24.17;;;8.77;;
21697;SDS011;11010;49.548;11.926;2024-01-11T05:34:12;23.30;;;8.63;;
21697;SDS011;11010;49.548;11.926;2024-01-11T05:36:40;25.00;;;8.77;;
21697;SDS011;11010;49.548;11.926;2024-01-11T05:39:08;20.57;;;8.43;;
21697;SDS011;11010;49.548;11.926;2024-01-11T05:41:36;22.27;;;7.93;;
21697;SDS011;11010;49.548;11.926;2024-01-11T05:44:04;24.47;;;8.70;;
21697;SDS011;11010;49.548;11.926;2024-01-11T05:46:32;26.80;;;9.37;;
21697;SDS011;11010;49.548;11.926;2024-01-11T05:48:59;26.70;;;10.40;;
21697;SDS011;11010;49.548;11.926;2024-01-11T05:51:27;30.10;;;10.23;;
21697;SDS011;11010;49.548;11.926;2024-01-11T05:53:55;25.77;;;9.50;;
21697;SDS011;11010;49.548;11.926;2024-01-11T05:56:23;26.57;;;10.80;;
21697;SDS011;11010;49.548;11.926;2024-01-11T05:58:51;24.00;;;8.80;;
21697;SDS011;11010;49.548;11.926;2024-01-11T06:01:19;25.70;;;8.63;;
21697;SDS011;11010;49.548;11.926;2024-01-11T06:03:48;27.83;;;9.70;;
21697;SDS011;11010;49.548;11.926;2024-01-11T06:06:16;23.97;;;9.40;;
21697;SDS011;11010;49.548;11.926;2024-01-11T06:08:44;26.63;;;8.83;;
21697;SDS011;11010;49.548;11.926;2024-01-11T06:11:12;28.47;;;9.43;;
21697;SDS011;11010;49.548;11.926;2024-01-11T06:13:40;25.73;;;9.40;;
21697;SDS011;11010;49.548;11.926;2024-01-11T06:16:08;25.43;;;9.43;;
21697;SDS011;11010;49.548;11.926;2024-01-11T06:18:39;34.20;;;10.23;;
21697;SDS011;11010;49.548;11.926;2024-01-11T06:21:07;27.93;;;10.10;;
21697;SDS011;11010;49.548;11.926;2024-01-11T06:23:34;27.17;;;10.07;;
21697;SDS011;11010;49.548;11.926;2024-01-11T06:26:02;24.30;;;9.43;;
21697;SDS011;11010;49.548;11.926;2024-01-11T06:28:31;27.53;;;10.10;;
21697;SDS011;11010;49.548;11.926;2024-01-11T06:31:02;31.43;;;9.40;;
21697;SDS011;11010;49.548;11.926;2024-01-11T06:33:30;25.27;;;8.80;;
21697;SDS011;11010;49.548;11.926;2024-01-11T06:35:59;25.67;;;8.53;;
21697;SDS011;11010;49.548;11.926;2024-01-11T06:38:27;23.70;;;9.50;;
21697;SDS011;11010;49.548;11.926;2024-01-11T06:40:56;27.50;;;8.73;;
21697;SDS011;11010;49.548;11.926;2024-01-11T06:43:24;25.60;;;9.30;;
21697;SDS011;11010;49.548;11.926;2024-01-11T06:45:52;24.97;;;9.60;;
21697;SDS011;11010;49.548;11.926;2024-01-11T06:48:20;26.53;;;9.57;;
21697;SDS011;11010;49.548;11.926;2024-01-11T06:50:48;28.27;;;8.97;;
21697;SDS011;11010;49.548;11.926;2024-01-11T06:53:16;26.93;;;9.57;;
21697;SDS011;11010;49.548;11.926;2024-01-11T06:55:44;27.90;;;9.30;;
21697;SDS011;11010;49.548;11.926;2024-01-11T06:58:15;25.60;;;8.73;;
21697;SDS011;11010;49.548;11.926;2024-01-11T07:00:43;25.50;;;8.70;;
21697;SDS011;11010;49.548;11.926;2024-01-11T07:03:11;24.00;;;8.27;;
21697;SDS011;11010;49.548;11.926;2024-01-11T07:05:39;28.13;;;8.90;;
21697;SDS011;11010;49.548;11.926;2024-01-11T07:08:07;25.00;;;8.97;;
21697;SDS011;11010;49.548;11.926;2024-01-11T07:10:35;22.57;;;8.00;;
21697;SDS011;11010;49.548;11.926;2024-01-11T07:13:04;26.40;;;8.90;;
21697;SDS011;11010;49.548;11.926;2024-01-11T07:15:33;30.47;;;9.80;;
21697;SDS011;11010;49.548;11.926;2024-01-11T07:18:01;33.77;;;11.13;;
21697;SDS011;11010;49.548;11.926;2024-01-11T07:20:29;28.77;;;9.67;;
21697;SDS011;11010;49.548;11.926;2024-01-11T07:22:57;29.00;;;9.97;;
21697;SDS011;11010;49.548;11.926;2024-01-11T07:25:25;26.33;;;9.63;;
21697;SDS011;11010;49.548;11.926;2024-01-11T07:27:53;27.03;;;9.13;;
21697;SDS011;11010;49.548;11.926;2024-01-11T07:30:21;24.97;;;9.13;;
21697;SDS011;11010;49.548;11.926;2024-01-11T07:32:48;23.13;;;8.83;;
21697;SDS011;11010;49.548;11.926;2024-01-11T07:35:17;26.07;;;8.50;;
21697;SDS011;11010;49.548;11.926;2024-01-11T07:37:45;29.57;;;9.83;;
21697;SDS011;11010;49.548;11.926;2024-01-11T07:40:13;25.80;;;8.57;;
21697;SDS011;11010;49.548;11.926;2024-01-11T07:42:40;26.93;;;9.33;;
21697;SDS011;11010;49.548;11.926;2024-01-11T07:45:09;23.33;;;8.53;;
21697;SDS011;11010;49.548;11.926;2024-01-11T07:47:37;23.03;;;9.17;;
21697;SDS011;11010;49.548;11.926;2024-01-11T07:50:05;30.60;;;9.53;;
21697;SDS011;11010;49.548;11.926;2024-01-11T07:52:33;23.07;;;8.67;;
21697;SDS011;11010;49.548;11.926;2024-01-11T07:55:01;26.47;;;8.63;;
21697;SDS011;11010;49.548;11.926;2024-01-11T07:57:34;22.60;;;8.50;;
21697;SDS011;11010;49.548;11.926;2024-01-11T08:00:02;23.03;;;8.40;;
21697;SDS011;11010;49.548;11.926;2024-01-11T08:02:37;25.30;;;9.00;;
21697;SDS011;11010;49.548;11.926;2024-01-11T08:05:06;26.20;;;8.90;;
21697;SDS011;11010;49.548;11.926;2024-01-11T08:07:35;22.70;;;8.00;;
21697;SDS011;11010;49.548;11.926;2024-01-11T08:10:02;24.57;;;8.67;;
21697;SDS011;11010;49.548;11.926;2024-01-11T08:12:31;26.60;;;9.00;;
21697;SDS011;11010;49.548;11.926;2024-01-11T08:14:58;23.40;;;9.10;;
21697;SDS011;11010;49.548;11.926;2024-01-11T08:17:26;22.00;;;7.63;;
21697;SDS011;11010;49.548;11.926;2024-01-11T08:19:54;23.10;;;8.07;;
21697;SDS011;11010;49.548;11.926;2024-01-11T08:22:23;24.03;;;8.20;;
21697;SDS011;11010;49.548;11.926;2024-01-11T08:24:53;21.27;;;7.87;;
21697;SDS011;11010;49.548;11.926;2024-01-11T08:27:22;22.23;;;8.17;;
21697;SDS011;11010;49.548;11.926;2024-01-11T08:29:50;23.27;;;8.60;;
21697;SDS011;11010;49.548;11.926;2024-01-11T08:32:18;20.67;;;7.80;;
21697;SDS011;11010;49.548;11.926;2024-01-11T08:34:57;27.17;;;9.43;;
21697;SDS011;11010;49.548;11.926;2024-01-11T08:37:25;26.27;;;9.67;;
21697;SDS011;11010;49.548;11.926;2024-01-11T08:39:53;22.00;;;7.93;;
21697;SDS011;11010;49.548;11.926;2024-01-11T08:42:21;22.67;;;8.67;;
21697;SDS011;11010;49.548;11.926;2024-01-11T08:44:49;24.40;;;9.03;;
21697;SDS011;11010;49.548;11.926;2024-01-11T08:47:17;20.67;;;7.93;;
21697;SDS011;11010;49.548;11.926;2024-01-11T08:49:44;23.17;;;9.77;;
21697;SDS011;11010;49.548;11.926;2024-01-11T08:52:12;23.90;;;8.90;;
21697;SDS011;11010;49.548;11.926;2024-01-11T08:54:40;27.80;;;9.73;;
21697;SDS011;11010;49.548;11.926;2024-01-11T08:57:08;24.83;;;8.73;;
21697;SDS011;11010;49.548;11.926;2024-01-11T08:59:36;28.67;;;9.20;;
21697;SDS011;11010;49.548;11.926;2024-01-11T09:02:04;25.40;;;9.43;;
21697;SDS011;11010;49.548;11.926;2024-01-11T09:04:42;25.77;;;9.30;;
21697;SDS011;11010;49.548;11.926;2024-01-11T09:07:10;27.07;;;10.00;;
21697;SDS011;11010;49.548;11.926;2024-01-11T09:09:37;25.93;;;9.33;;
21697;SDS011;11010;49.548;11.926;2024-01-11T09:12:16;25.37;;;9.70;;
21697;SDS011;11010;49.548;11.926;2024-01-11T09:14:44;24.23;;;9.93;;
21697;SDS011;11010;49.548;11.926;2024-01-11T09:17:12;22.13;;;9.10;;
21697;SDS011;11010;49.548;11.926;2024-01-11T09:19:40;25.57;;;8.50;;
21697;SDS011;11010;49.548;11.926;2024-01-11T09:22:08;25.33;;;8.90;;
21697;SDS011;11010;49.548;11.926;2024-01-11T09:24:37;22.00;;;8.83;;
21697;SDS011;11010;49.548;11.926;2024-01-11T09:27:06;26.77;;;8.60;;
21697;SDS011;11010;49.548;11.926;2024-01-11T09:29:34;25.07;;;8.93;;
21697;SDS011;11010;49.548;11.926;2024-01-11T09:32:02;24.93;;;9.43;;
21697;SDS011;11010;49.548;11.926;2024-01-11T09:34:30;23.73;;;8.27;;
21697;SDS011;11010;49.548;11.926;2024-01-11T09:36:58;26.57;;;8.67;;
21697;SDS011;11010;49.548;11.926;2024-01-11T09:39:26;25.63;;;8.87;;
21697;SDS011;11010;49.548;11.926;2024-01-11T09:44:31;22.13;;;8.60;;
21697;SDS011;11010;49.548;11.926;2024-01-11T09:47:00;24.43;;;9.27;;
21697;SDS011;11010;49.548;11.926;2024-01-11T09:49:30;23.33;;;8.80;;
21697;SDS011;11010;49.548;11.926;2024-01-11T09:51:58;22.23;;;9.07;;
21697;SDS011;11010;49.548;11.926;2024-01-11T09:54:28;24.37;;;9.10;;
21697;SDS011;11010;49.548;11.926;2024-01-11T09:56:57;22.87;;;8.70;;
21697;SDS011;11010;49.548;11.926;2024-01-11T09:59:27;25.13;;;9.17;;
21697;SDS011;11010;49.548;11.926;2024-01-11T10:01:55;23.33;;;8.30;;
21697;SDS011;11010;49.548;11.926;2024-01-11T10:04:23;23.30;;;8.90;;
21697;SDS011;11010;49.548;11.926;2024-01-11T10:06:51;26.43;;;9.30;;
21697;SDS011;11010;49.548;11.926;2024-01-11T10:09:19;27.47;;;8.83;;
21697;SDS011;11010;49.548;11.926;2024-01-11T10:11:47;23.97;;;8.47;;
21697;SDS011;11010;49.548;11.926;2024-01-11T10:14:16;24.60;;;9.17;;
21697;SDS011;11010;49.548;11.926;2024-01-11T10:16:44;21.27;;;8.50;;
21697;SDS011;11010;49.548;11.926;2024-01-11T10:19:12;22.80;;;8.53;;
21697;SDS011;11010;49.548;11.926;2024-01-11T10:21:42;26.47;;;9.23;;
21697;SDS011;11010;49.548;11.926;2024-01-11T10:24:14;24.07;;;8.83;;
21697;SDS011;11010;49.548;11.926;2024-01-11T10:26:44;22.93;;;8.60;;
21697;SDS011;11010;49.548;11.926;2024-01-11T10:29:12;23.17;;;8.30;;
21697;SDS011;11010;49.548;11.926;2024-01-11T10:31:40;22.23;;;8.77;;
21697;SDS011;11010;49.548;11.926;2024-01-11T10:34:08;23.70;;;9.30;;
21697;SDS011;11010;49.548;11.926;2024-01-11T10:36:36;26.07;;;9.27;;
21697;SDS011;11010;49.548;11.926;2024-01-11T10:39:04;25.73;;;9.30;;
21697;SDS011;11010;49.548;11.926;2024-01-11T10:41:32;21.70;;;8.83;;
21697;SDS011;11010;49.548;11.926;2024-01-11T10:44:03;21.47;;;8.57;;
21697;SDS011;11010;49.548;11.926;2024-01-11T10:46:31;24.77;;;9.27;;
21697;SDS011;11010;49.548;11.926;2024-01-11T10:49:01;22.23;;;8.70;;
21697;SDS011;11010;49.548;11.926;2024-01-11T10:51:32;26.33;;;9.50;;
21697;SDS011;11010;49.548;11.926;2024-01-11T10:54:00;24.73;;;8.43;;
21697;SDS011;11010;49.548;11.926;2024-01-11T10:56:29;27.70;;;8.93;;
21697;SDS011;11010;49.548;11.926;2024-01-11T10:58:58;26.20;;;8.77;;
21697;SDS011;11010;49.548;11.926;2024-01-11T11:01:27;27.23;;;8.87;;
21697;SDS011;11010;49.548;11.926;2024-01-11T11:03:55;26.97;;;8.93;;
21697;SDS011;11010;49.548;11.926;2024-01-11T11:06:23;22.27;;;8.73;;
21697;SDS011;11010;49.548;11.926;2024-01-11T11:08:52;22.40;;;8.90;;
21697;SDS011;11010;49.548;11.926;2024-01-11T11:11:20;21.90;;;8.07;;
21697;SDS011;11010;49.548;11.926;2024-01-11T11:13:48;25.20;;;9.40;;
21697;SDS011;11010;49.548;11.926;2024-01-11T11:16:16;24.40;;;9.27;;
21697;SDS011;11010;49.548;11.926;2024-01-11T11:18:44;25.70;;;8.97;;
21697;SDS011;11010;49.548;11.926;2024-01-11T11:21:12;21.80;;;8.30;;
21697;SDS011;11010;49.548;11.926;2024-01-11T11:23:40;24.47;;;8.73;;
21697;SDS011;11010;49.548;11.926;2024-01-11T11:26:08;20.30;;;7.87;;
21697;SDS011;11010;49.548;11.926;2024-01-11T11:28:43;26.83;;;9.03;;
21697;SDS011;11010;49.548;11.926;2024-01-11T11:31:11;23.60;;;8.57;;
21697;SDS011;11010;49.548;11.926;2024-01-11T11:33:40;21.67;;;8.47;;
21697;SDS011;11010;49.548;11.926;2024-01-11T11:36:12;24.60;;;8.90;;
21697;SDS011;11010;49.548;11.926;2024-01-11T11:38:40;23.13;;;8.27;;
21697;SDS011;11010;49.548;11.926;2024-01-11T11:41:09;36.07;;;10.70;;
21697;SDS011;11010;49.548;11.926;2024-01-11T11:43:37;34.90;;;11.43;;
21697;SDS011;11010;49.548;11.926;2024-01-11T11:46:07;34.63;;;10.33;;
21697;SDS011;11010;49.548;11.926;2024-01-11T11:51:18;30.50;;;10.40;;
21697;SDS011;11010;49.548;11.926;2024-01-11T11:53:49;54.70;;;15.07;;
21697;SDS011;11010;49.548;11.926;2024-01-11T11:56:18;27.00;;;9.93;;
21697;SDS011;11010;49.548;11.926;2024-01-11T11:58:47;25.00;;;8.80;;
21697;SDS011;11010;49.548;11.926;2024-01-11T12:01:16;23.57;;;9.30;;
21697;SDS011;11010;49.548;11.926;2024-01-11T12:03:44;20.30;;;7.60;;
21697;SDS011;11010;49.548;11.926;2024-01-11T12:06:17;21.60;;;8.03;;
21697;SDS011;11010;49.548;11.926;2024-01-11T12:08:46;22.27;;;8.63;;
21697;SDS011;11010;49.548;11.926;2024-01-11T12:11:19;18.80;;;7.27;;
21697;SDS011;11010;49.548;11.926;2024-01-11T12:13:48;22.57;;;9.13;;
21697;SDS011;11010;49.548;11.926;2024-01-11T12:16:16;21.37;;;7.70;;
21697;SDS011;11010;49.548;11.926;2024-01-11T12:18:44;20.93;;;8.27;;
21697;SDS011;11010;49.548;11.926;2024-01-11T12:21:12;19.47;;;7.43;;
21697;SDS011;11010;49.548;11.926;2024-01-11T12:23:40;19.93;;;7.90;;
21697;SDS011;11010;49.548;11.926;2024-01-11T12:26:09;22.20;;;7.80;;
21697;SDS011;11010;49.548;11.926;2024-01-11T12:28:41;20.57;;;8.00;;
21697;SDS011;11010;49.548;11.926;2024-01-11T12:31:11;20.13;;;7.50;;
21697;SDS011;11010;49.548;11.926;2024-01-11T12:33:40;20.03;;;7.33;;
21697;SDS011;11010;49.548;11.926;2024-01-11T12:36:08;19.50;;;7.30;;
21697;SDS011;11010;49.548;11.926;2024-01-11T12:38:37;20.77;;;7.33;;
21697;SDS011;11010;49.548;11.926;2024-01-11T12:41:06;17.63;;;7.20;;
21697;SDS011;11010;49.548;11.926;2024-01-11T12:43:34;20.33;;;7.10;;
21697;SDS011;11010;49.548;11.926;2024-01-11T12:46:02;14.33;;;6.23;;
21697;SDS011;11010;49.548;11.926;2024-01-11T12:48:30;17.33;;;6.87;;
21697;SDS011;11010;49.548;11.926;2024-01-11T12:50:58;21.60;;;7.90;;
21697;SDS011;11010;49.548;11.926;2024-01-11T12:53:46;17.30;;;7.07;;
21697;SDS011;11010;49.548;11.926;2024-01-11T12:56:15;21.00;;;7.33;;
21697;SDS011;11010;49.548;11.926;2024-01-11T12:58:43;18.43;;;6.90;;
21697;SDS011;11010;49.548;11.926;2024-01-11T13:01:13;17.40;;;6.63;;
21697;SDS011;11010;49.548;11.926;2024-01-11T13:03:45;18.73;;;7.20;;
21697;SDS011;11010;49.548;11.926;2024-01-11T13:06:14;17.60;;;6.60;;
21697;SDS011;11010;49.548;11.926;2024-01-11T13:08:42;15.00;;;6.57;;
21697;SDS011;11010;49.548;11.926;2024-01-11T13:11:10;18.97;;;7.20;;
21697;SDS011;11010;49.548;11.926;2024-01-11T13:13:41;18.17;;;6.90;;
21697;SDS011;11010;49.548;11.926;2024-01-11T13:16:09;18.77;;;6.63;;
21697;SDS011;11010;49.548;11.926;2024-01-11T13:18:39;18.17;;;6.60;;
21697;SDS011;11010;49.548;11.926;2024-01-11T13:21:07;15.67;;;6.13;;
21697;SDS011;11010;49.548;11.926;2024-01-11T13:23:36;15.80;;;6.03;;
21697;SDS011;11010;49.548;11.926;2024-01-11T13:26:06;16.47;;;6.20;;
21697;SDS011;11010;49.548;11.926;2024-01-11T13:28:34;14.27;;;5.80;;
21697;SDS011;11010;49.548;11.926;2024-01-11T13:31:02;18.60;;;6.87;;
21697;SDS011;11010;49.548;11.926;2024-01-11T13:33:30;16.53;;;6.67;;
21697;SDS011;11010;49.548;11.926;2024-01-11T13:35:57;15.83;;;6.07;;
21697;SDS011;11010;49.548;11.926;2024-01-11T13:38:26;16.10;;;6.03;;
21697;SDS011;11010;49.548;11.926;2024-01-11T13:40:54;16.13;;;5.97;;
21697;SDS011;11010;49.548;11.926;2024-01-11T13:43:22;17.03;;;6.70;;
21697;SDS011;11010;49.548;11.926;2024-01-11T13:45:49;17.30;;;6.47;;
21697;SDS011;11010;49.548;11.926;2024-01-11T13:48:17;20.37;;;6.67;;
21697;SDS011;11010;49.548;11.926;2024-01-11T13:50:45;18.80;;;6.30;;
21697;SDS011;11010;49.548;11.926;2024-01-11T13:53:13;15.30;;;5.73;;
21697;SDS011;11010;49.548;11.926;2024-01-11T13:55:41;15.70;;;6.30;;
21697;SDS011;11010;49.548;11.926;2024-01-11T13:58:10;17.13;;;6.63;;
21697;SDS011;11010;49.548;11.926;2024-01-11T14:00:39;14.83;;;6.00;;
21697;SDS011;11010;49.548;11.926;2024-01-11T14:03:07;17.57;;;6.33;;
21697;SDS011;11010;49.548;11.926;2024-01-11T14:05:36;18.10;;;6.47;;
21697;SDS011;11010;49.548;11.926;2024-01-11T14:08:05;14.53;;;6.53;;
21697;SDS011;11010;49.548;11.926;2024-01-11T14:10:34;15.27;;;6.37;;
21697;SDS011;11010;49.548;11.926;2024-01-11T14:13:02;16.23;;;6.43;;
21697;SDS011;11010;49.548;11.926;2024-01-11T14:15:33;16.40;;;6.80;;
21697;SDS011;11010;49.548;11.926;2024-01-11T14:18:01;17.50;;;6.40;;
21697;SDS011;11010;49.548;11.926;2024-01-11T14:20:30;15.40;;;6.23;;
21697;SDS011;11010;49.548;11.926;2024-01-11T14:23:00;17.70;;;6.40;;
21697;SDS011;11010;49.548;11.926;2024-01-11T14:25:28;24.60;;;8.40;;
21697;SDS011;11010;49.548;11.926;2024-01-11T14:27:57;49.60;;;15.17;;
21697;SDS011;11010;49.548;11.926;2024-01-11T14:30:24;36.97;;;11.33;;
21697;SDS011;11010;49.548;11.926;2024-01-11T14:32:53;19.30;;;7.30;;
21697;SDS011;11010;49.548;11.926;2024-01-11T14:35:21;17.40;;;6.50;;
21697;SDS011;11010;49.548;11.926;2024-01-11T14:37:49;17.23;;;6.20;;
21697;SDS011;11010;49.548;11.926;2024-01-11T14:40:19;15.60;;;6.07;;
21697;SDS011;11010;49.548;11.926;2024-01-11T14:42:50;18.23;;;6.40;;